createdAt,value
2022-12-28T00:00:00.392Z,20.60
2022-12-28T00:00:32.135Z,19.95
2022-12-28T00:01:07.888Z,20.73
2022-12-28T00:01:39.550Z,19.67
2022-12-28T00:02:11.162Z,18.48
2022-12-28T00:02:42.811Z,18.85
2022-12-28T00:03:14.450Z,16.80
2022-12-28T00:03:46.864Z,17.60
2022-12-28T00:04:18.443Z,16.33
2022-12-28T00:04:50.190Z,17.33
2022-12-28T00:05:21.939Z,16.42
2022-12-28T00:05:53.925Z,18.00
2022-12-28T00:06:26.350Z,15.60
2022-12-28T00:06:57.912Z,17.70
2022-12-28T00:07:29.511Z,17.02
2022-12-28T00:08:01.153Z,18.60
2022-12-28T00:08:32.892Z,16.75
2022-12-28T00:09:04.675Z,17.73
2022-12-28T00:09:36.261Z,15.70
2022-12-28T00:10:07.993Z,18.58
2022-12-28T00:11:08.772Z,22.80
2022-12-28T00:11:31.462Z,18.40
2022-12-28T00:12:03.107Z,17.70
2022-12-28T00:12:34.709Z,17.23
2022-12-28T00:13:06.321Z,17.98
2022-12-28T00:13:38.544Z,21.65
2022-12-28T00:14:10.128Z,20.70
2022-12-28T00:14:41.894Z,20.55
2022-12-28T00:15:13.513Z,18.75
2022-12-28T00:15:45.088Z,20.60
2022-12-28T00:16:37.285Z,20.92
2022-12-28T00:17:08.923Z,21.20
2022-12-28T00:17:40.492Z,20.23
2022-12-28T00:18:12.112Z,22.63
2022-12-28T00:18:43.709Z,21.50
2022-12-28T00:19:16.934Z,19.70
2022-12-28T00:19:48.526Z,18.63
2022-12-28T00:20:20.236Z,17.63
2022-12-28T00:20:59.344Z,18.30
2022-12-28T00:21:31.189Z,18.77
2022-12-28T00:22:02.768Z,17.80
2022-12-28T00:22:34.518Z,17.48
2022-12-28T00:23:06.866Z,20.25
2022-12-28T00:23:38.447Z,20.23
2022-12-28T00:24:19.758Z,18.30
2022-12-28T00:24:51.306Z,20.90
2022-12-28T00:25:22.861Z,19.38
2022-12-28T00:25:54.604Z,19.77
2022-12-28T00:26:31.084Z,17.02
2022-12-28T00:27:02.666Z,16.38
2022-12-28T00:27:34.319Z,14.60
2022-12-28T00:28:05.971Z,17.42
2022-12-28T00:28:37.707Z,20.75
2022-12-28T00:29:09.399Z,18.77
2022-12-28T00:29:40.954Z,16.67
2022-12-28T00:30:13.002Z,16.15
2022-12-28T00:30:44.653Z,19.58
2022-12-28T00:31:16.636Z,17.08
2022-12-28T00:31:48.587Z,16.35
2022-12-28T00:32:20.184Z,19.73
2022-12-28T00:32:51.788Z,14.77
2022-12-28T00:33:23.437Z,18.15
2022-12-28T00:33:55.002Z,18.60
2022-12-28T00:34:26.654Z,18.48
2022-12-28T00:34:58.225Z,20.80
2022-12-28T00:35:29.791Z,17.65
2022-12-28T00:36:02.426Z,17.60
2022-12-28T00:37:08.385Z,21.50
2022-12-28T00:37:25.962Z,20.42
2022-12-28T00:37:57.529Z,20.17
2022-12-28T00:38:33.154Z,20.98
2022-12-28T00:39:05.673Z,19.13
2022-12-28T00:39:37.269Z,21.98
2022-12-28T00:40:09.711Z,18.77
2022-12-28T00:40:41.274Z,22.70
2022-12-28T00:41:12.843Z,20.27
2022-12-28T00:41:44.419Z,22.75
2022-12-28T00:42:16.145Z,22.52
2022-12-28T00:42:47.708Z,21.83
2022-12-28T00:43:19.517Z,20.73
2022-12-28T00:43:51.201Z,19.90
2022-12-28T00:44:22.770Z,19.65
2022-12-28T00:44:54.363Z,18.67
2022-12-28T00:45:25.964Z,19.73
2022-12-28T00:45:57.642Z,25.83
2022-12-28T00:46:29.233Z,24.13
2022-12-28T00:47:00.867Z,26.35
2022-12-28T00:47:32.460Z,26.15
2022-12-28T00:48:04.579Z,25.98
2022-12-28T00:48:36.183Z,29.35
2022-12-28T00:49:07.742Z,34.38
2022-12-28T00:49:39.410Z,42.00
2022-12-28T00:50:11.058Z,35.97
2022-12-28T00:50:44.461Z,35.03
2022-12-28T00:51:19.372Z,36.10
2022-12-28T00:51:50.994Z,35.25
2022-12-28T00:52:22.617Z,32.17
2022-12-28T00:52:54.208Z,31.88
2022-12-28T00:53:25.753Z,39.10
2022-12-28T00:53:57.398Z,36.10
2022-12-28T00:54:29.359Z,29.95
2022-12-28T00:55:00.967Z,29.83
2022-12-28T00:55:36.059Z,34.33
2022-12-28T00:56:12.181Z,31.23
2022-12-28T00:56:43.851Z,30.50
2022-12-28T00:57:15.437Z,36.45
2022-12-28T00:57:47.027Z,31.92
2022-12-28T00:58:18.630Z,30.38
2022-12-28T00:58:50.989Z,32.20
2022-12-28T00:59:22.622Z,33.90
2022-12-28T00:59:54.166Z,33.40
2022-12-28T01:00:26.301Z,36.22
2022-12-28T01:00:57.929Z,45.10
2022-12-28T01:01:29.976Z,43.90
2022-12-28T01:02:01.758Z,43.95
2022-12-28T01:02:33.496Z,43.28
2022-12-28T01:03:05.394Z,43.03
2022-12-28T01:03:37.046Z,47.70
2022-12-28T01:04:08.631Z,46.25
2022-12-28T01:04:40.208Z,59.78
2022-12-28T01:05:11.800Z,73.07
2022-12-28T01:05:43.369Z,66.45
2022-12-28T01:06:18.703Z,59.65
2022-12-28T01:06:50.268Z,46.50
2022-12-28T01:07:21.880Z,42.85
2022-12-28T01:07:53.528Z,41.53
2022-12-28T01:08:25.257Z,56.28
2022-12-28T01:08:56.776Z,61.67
2022-12-28T01:09:28.332Z,56.97
2022-12-28T01:09:59.946Z,50.85
2022-12-28T01:10:31.518Z,49.80
2022-12-28T01:11:14.012Z,48.47
2022-12-28T01:11:46.358Z,41.88
2022-12-28T01:12:17.952Z,45.25
2022-12-28T01:12:49.539Z,47.40
2022-12-28T01:13:21.093Z,47.00
2022-12-28T01:13:54.679Z,38.88
2022-12-28T01:14:26.345Z,39.55
2022-12-28T01:14:57.968Z,40.58
2022-12-28T01:15:29.580Z,35.05
2022-12-28T01:16:01.169Z,32.90
2022-12-28T01:16:35.857Z,30.90
2022-12-28T01:17:07.465Z,33.53
2022-12-28T01:17:39.463Z,36.33
2022-12-28T01:18:11.112Z,33.65
2022-12-28T01:18:45.706Z,41.90
2022-12-28T01:19:21.250Z,39.78
2022-12-28T01:19:54.165Z,48.50
2022-12-28T01:20:25.801Z,46.50
2022-12-28T01:20:57.394Z,43.92
2022-12-28T01:21:32.344Z,50.00
2022-12-28T01:22:03.928Z,43.13
2022-12-28T01:22:35.564Z,40.42
2022-12-28T01:23:07.352Z,39.08
2022-12-28T01:23:39.432Z,40.45
2022-12-28T01:24:10.984Z,41.92
2022-12-28T01:24:42.525Z,34.35
2022-12-28T01:25:14.240Z,33.90
2022-12-28T01:25:45.851Z,30.67
2022-12-28T01:26:17.495Z,29.88
2022-12-28T01:26:49.145Z,26.77
2022-12-28T01:27:20.915Z,21.83
2022-12-28T01:27:52.458Z,25.10
2022-12-28T01:28:24.037Z,26.20
2022-12-28T01:28:56.204Z,23.15
2022-12-28T01:29:27.769Z,24.20
2022-12-28T01:29:59.349Z,20.90
2022-12-28T01:30:30.961Z,22.00
2022-12-28T01:31:11.561Z,23.30
2022-12-28T01:31:43.194Z,21.50
2022-12-28T01:32:14.920Z,21.88
2022-12-28T01:32:46.537Z,20.85
2022-12-28T01:33:18.072Z,22.73
2022-12-28T01:33:49.869Z,21.75
2022-12-28T01:34:21.417Z,22.48
2022-12-28T01:34:52.994Z,24.02
2022-12-28T01:35:24.567Z,24.67
2022-12-28T01:35:56.190Z,23.38
2022-12-28T01:36:35.136Z,21.90
2022-12-28T01:37:06.724Z,21.25
2022-12-28T01:37:38.315Z,21.73
2022-12-28T01:38:09.890Z,23.63
2022-12-28T01:38:41.987Z,22.52
2022-12-28T01:39:13.558Z,21.77
2022-12-28T01:39:45.097Z,23.10
2022-12-28T01:40:16.784Z,21.75
2022-12-28T01:40:50.492Z,24.13
2022-12-28T01:41:22.735Z,21.77
2022-12-28T01:41:54.482Z,25.25
2022-12-28T01:42:26.130Z,23.27
2022-12-28T01:42:57.682Z,25.70
2022-12-28T01:43:46.779Z,24.80
2022-12-28T01:44:24.085Z,27.40
2022-12-28T01:44:55.660Z,27.80
2022-12-28T01:45:27.323Z,23.27
2022-12-28T01:45:59.066Z,23.85
2022-12-28T01:47:02.944Z,25.83
2022-12-28T01:47:35.780Z,21.73
2022-12-28T01:48:20.109Z,27.20
2022-12-28T01:49:13.767Z,24.45
2022-12-28T01:49:54.848Z,29.52
2022-12-28T01:50:28.815Z,24.33
2022-12-28T01:51:01.242Z,23.35
2022-12-28T01:51:55.970Z,23.40
2022-12-28T01:52:27.536Z,22.13
2022-12-28T01:53:02.790Z,21.95
2022-12-28T01:53:34.480Z,23.00
2022-12-28T01:54:06.085Z,22.70
2022-12-28T01:54:42.218Z,22.50
2022-12-28T01:55:23.632Z,22.52
2022-12-28T01:55:55.228Z,23.48
2022-12-28T01:56:27.744Z,20.08
2022-12-28T01:56:59.604Z,21.10
2022-12-28T01:57:33.576Z,22.58
2022-12-28T01:58:21.517Z,22.23
2022-12-28T01:58:54.027Z,21.00
2022-12-28T01:59:30.510Z,25.23
2022-12-28T02:00:20.597Z,23.10
2022-12-28T02:01:34.799Z,20.50
2022-12-28T02:02:07.020Z,21.65
2022-12-28T02:02:40.531Z,23.83
2022-12-28T02:03:18.552Z,25.65
2022-12-28T02:03:50.403Z,25.77
2022-12-28T02:04:22.086Z,25.77
2022-12-28T02:04:53.761Z,22.15
2022-12-28T02:05:29.933Z,24.63
2022-12-28T02:06:06.500Z,24.45
2022-12-28T02:06:38.578Z,26.92
2022-12-28T02:07:10.357Z,24.90
2022-12-28T02:07:53.465Z,24.63
2022-12-28T02:08:47.268Z,24.98
2022-12-28T02:09:39.711Z,22.33
2022-12-28T02:10:42.619Z,24.63
2022-12-28T02:11:03.537Z,19.70
2022-12-28T02:11:36.199Z,22.10
2022-12-28T02:12:10.901Z,19.40
2022-12-28T02:12:43.671Z,18.90
2022-12-28T02:13:17.290Z,19.40
2022-12-28T02:13:51.515Z,27.67
2022-12-28T02:14:23.233Z,38.53
2022-12-28T02:14:54.818Z,44.33
2022-12-28T02:15:26.429Z,41.65
2022-12-28T02:15:58.106Z,40.08
2022-12-28T02:16:29.804Z,39.45
2022-12-28T02:17:01.653Z,35.88
2022-12-28T02:17:34.260Z,37.50
2022-12-28T02:18:06.245Z,50.45
2022-12-28T02:18:38.949Z,41.75
2022-12-28T02:19:16.108Z,31.77
2022-12-28T02:19:49.397Z,30.27
2022-12-28T02:20:21.105Z,31.17
2022-12-28T02:21:20.267Z,27.38
2022-12-28T02:22:28.802Z,23.60
2022-12-28T02:23:24.270Z,24.65
2022-12-28T02:24:28.136Z,22.80
2022-12-28T02:25:29.555Z,25.55
2022-12-28T02:26:38.584Z,23.15
2022-12-28T02:27:19.269Z,21.17
2022-12-28T02:28:23.252Z,24.25
2022-12-28T02:29:10.017Z,23.50
2022-12-28T02:30:03.618Z,22.63
2022-12-28T02:30:42.663Z,21.25
2022-12-28T02:31:44.669Z,24.65
2022-12-28T02:32:34.844Z,21.90
2022-12-28T02:33:09.905Z,22.08
2022-12-28T02:33:51.341Z,22.15
2022-12-28T02:34:31.845Z,21.52
2022-12-28T02:35:33.319Z,23.30
2022-12-28T02:36:18.506Z,20.55
2022-12-28T02:36:56.619Z,20.13
2022-12-28T02:37:42.242Z,18.40
2022-12-28T02:38:23.384Z,21.98
2022-12-28T02:39:11.533Z,20.80
2022-12-28T02:39:52.841Z,22.23
2022-12-28T02:40:38.168Z,17.02
2022-12-28T02:41:14.132Z,22.30
2022-12-28T02:41:47.109Z,21.08
2022-12-28T02:42:20.880Z,21.60
2022-12-28T02:42:54.783Z,20.85
2022-12-28T02:43:26.528Z,20.70
2022-12-28T02:43:59.503Z,21.33
2022-12-28T02:44:49.409Z,20.75
2022-12-28T02:46:06.676Z,20.52
2022-12-28T02:46:57.191Z,18.77
2022-12-28T02:47:47.553Z,18.00
2022-12-28T02:48:37.856Z,18.05
2022-12-28T02:49:42.555Z,19.08
2022-12-28T02:50:16.328Z,17.48
2022-12-28T02:51:00.681Z,18.90
2022-12-28T02:51:41.384Z,18.15
2022-12-28T02:52:18.970Z,18.90
2022-12-28T02:53:12.939Z,22.83
2022-12-28T02:54:01.432Z,21.63
2022-12-28T02:55:15.923Z,20.30
2022-12-28T02:56:12.091Z,17.65
2022-12-28T02:56:55.855Z,18.50
2022-12-28T02:57:42.582Z,18.85
2022-12-28T02:58:26.143Z,19.90
2022-12-28T02:59:11.636Z,16.08
2022-12-28T03:00:02.210Z,16.60
2022-12-28T03:00:51.709Z,18.67
2022-12-28T03:01:38.323Z,15.77
2022-12-28T03:02:48.387Z,18.58
2022-12-28T03:03:55.414Z,17.75
2022-12-28T03:05:14.591Z,18.20
2022-12-28T03:06:19.789Z,19.52
2022-12-28T03:07:24.344Z,18.27
2022-12-28T03:08:19.888Z,19.48
2022-12-28T03:09:15.855Z,17.40
2022-12-28T03:10:15.816Z,19.13
2022-12-28T03:11:00.191Z,21.70
2022-12-28T03:11:44.021Z,19.48
2022-12-28T03:12:29.795Z,19.63
2022-12-28T03:13:28.101Z,19.40
2022-12-28T03:14:02.380Z,19.00
2022-12-28T03:14:43.195Z,17.60
2022-12-28T03:15:29.726Z,19.92
2022-12-28T03:16:07.772Z,19.55
2022-12-28T03:17:01.356Z,19.55
2022-12-28T03:17:55.334Z,20.30
2022-12-28T03:18:48.067Z,20.35
2022-12-28T03:19:39.879Z,20.60
2022-12-28T03:20:41.917Z,18.73
2022-12-28T03:21:33.935Z,18.40
2022-12-28T03:22:25.638Z,15.73
2022-12-28T03:23:17.732Z,19.17
2022-12-28T03:24:10.325Z,16.67
2022-12-28T03:25:03.041Z,19.05
2022-12-28T03:25:58.990Z,17.10
2022-12-28T03:26:52.916Z,17.52
2022-12-28T03:27:44.781Z,16.33
2022-12-28T03:28:39.441Z,20.00
2022-12-28T03:29:34.789Z,16.50
2022-12-28T03:30:32.837Z,16.48
2022-12-28T03:31:12.535Z,16.30
2022-12-28T03:31:44.305Z,18.05
2022-12-28T03:32:15.967Z,18.48
2022-12-28T03:32:48.616Z,19.13
2022-12-28T03:33:20.272Z,18.58
2022-12-28T03:34:06.628Z,20.10
2022-12-28T03:34:38.557Z,19.75
2022-12-28T03:35:10.299Z,21.30
2022-12-28T03:36:05.215Z,19.02
2022-12-28T03:37:14.883Z,19.05
2022-12-28T03:38:11.503Z,18.13
2022-12-28T03:39:01.588Z,19.17
2022-12-28T03:39:48.037Z,19.20
2022-12-28T03:40:29.580Z,20.70
2022-12-28T03:41:08.374Z,18.15
2022-12-28T03:42:18.033Z,18.42
2022-12-28T03:43:10.499Z,22.85
2022-12-28T03:43:56.160Z,20.63
2022-12-28T03:44:33.038Z,18.25
2022-12-28T03:45:44.476Z,21.42
2022-12-28T03:46:35.755Z,18.38
2022-12-28T03:47:11.588Z,19.98
2022-12-28T03:47:44.995Z,24.23
2022-12-28T03:48:17.902Z,20.52
2022-12-28T03:48:50.642Z,18.45
2022-12-28T03:49:24.318Z,19.35
2022-12-28T03:49:55.942Z,21.08
2022-12-28T03:50:28.713Z,18.85
2022-12-28T03:51:00.881Z,18.35
2022-12-28T03:51:33.495Z,19.88
2022-12-28T03:52:07.291Z,20.17
2022-12-28T03:52:38.871Z,20.42
2022-12-28T03:53:11.091Z,22.58
2022-12-28T03:53:45.679Z,24.23
2022-12-28T03:54:17.924Z,20.90
2022-12-28T03:54:49.559Z,21.83
2022-12-28T03:55:21.238Z,22.60
2022-12-28T03:55:52.798Z,22.75
2022-12-28T03:56:27.826Z,18.45
2022-12-28T03:56:59.411Z,18.67
2022-12-28T03:57:31.017Z,19.73
2022-12-28T03:58:02.624Z,20.05
2022-12-28T03:58:34.274Z,18.48
2022-12-28T03:59:05.865Z,23.35
2022-12-28T03:59:37.519Z,20.02
2022-12-28T04:00:10.921Z,20.88
2022-12-28T04:00:42.529Z,19.17
2022-12-28T04:01:14.622Z,17.63
2022-12-28T04:01:46.400Z,17.13
2022-12-28T04:02:18.253Z,17.67
2022-12-28T04:02:51.177Z,17.05
2022-12-28T04:03:22.923Z,19.27
2022-12-28T04:03:54.531Z,19.77
2022-12-28T04:04:26.114Z,17.50
2022-12-28T04:04:57.656Z,17.08
2022-12-28T04:05:29.312Z,18.92
2022-12-28T04:06:01.186Z,17.55
2022-12-28T04:06:32.787Z,19.40
2022-12-28T04:07:04.413Z,18.52
2022-12-28T04:07:36.028Z,18.95
2022-12-28T04:08:07.571Z,19.90
2022-12-28T04:08:39.380Z,15.75
2022-12-28T04:09:10.994Z,20.23
2022-12-28T04:09:42.550Z,16.50
2022-12-28T04:10:14.185Z,16.95
2022-12-28T04:10:45.812Z,19.50
2022-12-28T04:11:17.394Z,18.98
2022-12-28T04:11:48.992Z,17.45
2022-12-28T04:12:21.237Z,17.40
2022-12-28T04:12:56.896Z,17.65
2022-12-28T04:13:30.787Z,17.58
2022-12-28T04:14:10.333Z,18.23
2022-12-28T04:14:42.405Z,17.30
2022-12-28T04:15:14.049Z,19.98
2022-12-28T04:15:56.247Z,18.67
2022-12-28T04:16:27.886Z,17.08
2022-12-28T04:16:59.485Z,17.63
2022-12-28T04:17:31.082Z,15.25
2022-12-28T04:18:02.666Z,17.95
2022-12-28T04:18:34.833Z,17.27
2022-12-28T04:19:06.425Z,18.83
2022-12-28T04:19:38.065Z,19.40
2022-12-28T04:20:09.956Z,18.98
2022-12-28T04:20:41.518Z,17.98
2022-12-28T04:21:14.738Z,18.42
2022-12-28T04:21:47.490Z,16.65
2022-12-28T04:22:19.039Z,18.23
2022-12-28T04:22:50.621Z,19.98
2022-12-28T04:23:22.340Z,19.38
2022-12-28T04:23:53.969Z,19.63
2022-12-28T04:24:25.605Z,20.00
2022-12-28T04:24:57.164Z,17.73
2022-12-28T04:25:28.765Z,17.60
2022-12-28T04:26:09.590Z,15.82
2022-12-28T04:26:41.193Z,18.27
2022-12-28T04:27:12.784Z,17.50
2022-12-28T04:27:44.381Z,16.70
2022-12-28T04:28:15.925Z,18.98
2022-12-28T04:28:47.540Z,18.70
2022-12-28T04:29:19.162Z,19.65
2022-12-28T04:29:50.920Z,20.15
2022-12-28T04:30:22.522Z,16.67
2022-12-28T04:30:54.343Z,17.48
2022-12-28T04:31:25.986Z,16.42
2022-12-28T04:31:57.853Z,16.92
2022-12-28T04:32:29.462Z,16.17
2022-12-28T04:33:01.014Z,21.42
2022-12-28T04:33:34.118Z,18.50
2022-12-28T04:34:06.656Z,16.13
2022-12-28T04:34:40.909Z,17.48
2022-12-28T04:35:14.962Z,17.30
2022-12-28T04:35:46.605Z,19.92
2022-12-28T04:36:18.201Z,16.63
2022-12-28T04:36:49.779Z,16.95
2022-12-28T04:37:21.390Z,18.27
2022-12-28T04:37:52.976Z,17.17
2022-12-28T04:38:24.525Z,19.00
2022-12-28T04:38:56.113Z,16.90
2022-12-28T04:39:27.741Z,16.50
2022-12-28T04:40:19.259Z,17.33
2022-12-28T04:40:50.802Z,18.48
2022-12-28T04:41:22.379Z,16.80
2022-12-28T04:41:53.994Z,18.48
2022-12-28T04:42:26.327Z,21.60
2022-12-28T04:42:57.958Z,18.02
2022-12-28T04:43:33.306Z,17.20
2022-12-28T04:44:04.886Z,16.45
2022-12-28T04:44:36.482Z,18.75
2022-12-28T04:45:08.616Z,18.88
2022-12-28T04:45:40.227Z,19.85
2022-12-28T04:46:14.181Z,18.63
2022-12-28T04:46:45.832Z,19.23
2022-12-28T04:47:17.447Z,17.48
2022-12-28T04:47:49.031Z,18.48
2022-12-28T04:48:20.633Z,18.35
2022-12-28T04:48:52.265Z,16.75
2022-12-28T04:49:23.837Z,19.33
2022-12-28T04:49:55.522Z,15.80
2022-12-28T04:50:29.898Z,17.88
2022-12-28T04:51:25.679Z,16.80
2022-12-28T04:51:57.283Z,16.80
2022-12-28T04:52:28.858Z,17.63
2022-12-28T04:53:00.418Z,18.63
2022-12-28T04:53:31.960Z,21.13
2022-12-28T04:54:03.724Z,18.15
2022-12-28T04:54:35.324Z,17.20
2022-12-28T04:55:07.320Z,18.88
2022-12-28T04:56:03.934Z,18.70
2022-12-28T04:56:35.531Z,20.20
2022-12-28T04:57:07.088Z,19.02
2022-12-28T04:57:38.632Z,17.48
2022-12-28T04:58:10.254Z,19.20
2022-12-28T04:58:41.976Z,17.48
2022-12-28T04:59:13.558Z,20.63
2022-12-28T04:59:45.169Z,19.73
2022-12-28T05:00:17.046Z,18.92
2022-12-28T05:00:48.623Z,21.95
2022-12-28T05:01:20.335Z,20.45
2022-12-28T05:01:52.092Z,18.75
2022-12-28T05:02:23.795Z,19.90
2022-12-28T05:02:59.244Z,20.55
2022-12-28T05:03:30.891Z,17.35
2022-12-28T05:04:02.675Z,16.60
2022-12-28T05:04:34.255Z,22.85
2022-12-28T05:05:06.155Z,17.88
2022-12-28T05:05:37.810Z,16.42
2022-12-28T05:06:13.139Z,17.05
2022-12-28T05:06:44.698Z,16.33
2022-12-28T05:07:16.279Z,18.63
2022-12-28T05:07:47.910Z,18.27
2022-12-28T05:08:19.442Z,21.75
2022-12-28T05:08:51.855Z,21.42
2022-12-28T05:09:23.739Z,18.08
2022-12-28T05:09:55.345Z,19.88
2022-12-28T05:10:27.424Z,17.00
2022-12-28T05:11:03.753Z,17.30
2022-12-28T05:11:35.340Z,20.90
2022-12-28T05:12:06.936Z,18.83
2022-12-28T05:12:38.528Z,17.13
2022-12-28T05:13:10.114Z,17.08
2022-12-28T05:13:41.950Z,20.70
2022-12-28T05:14:13.577Z,18.17
2022-12-28T05:14:45.188Z,22.50
2022-12-28T05:15:16.763Z,18.23
2022-12-28T05:15:48.344Z,20.77
2022-12-28T05:16:22.505Z,24.70
2022-12-28T05:16:54.116Z,20.77
2022-12-28T05:17:25.699Z,21.73
2022-12-28T05:17:57.338Z,21.42
2022-12-28T05:18:29.787Z,18.25
2022-12-28T05:19:01.369Z,20.13
2022-12-28T05:19:32.990Z,19.38
2022-12-28T05:20:05.392Z,25.70
2022-12-28T05:20:36.973Z,21.02
2022-12-28T05:21:10.831Z,21.27
2022-12-28T05:21:42.411Z,18.20
2022-12-28T05:22:15.675Z,22.75
2022-12-28T05:22:47.352Z,21.98
2022-12-28T05:23:18.953Z,19.27
2022-12-28T05:23:51.366Z,19.60
2022-12-28T05:24:22.969Z,19.73
2022-12-28T05:24:54.587Z,16.67
2022-12-28T05:25:26.152Z,18.65
2022-12-28T05:25:57.961Z,18.73
2022-12-28T05:26:29.860Z,19.00
2022-12-28T05:27:01.679Z,18.75
2022-12-28T05:27:33.309Z,17.35
2022-12-28T05:28:04.974Z,17.67
2022-12-28T05:28:36.572Z,18.77
2022-12-28T05:29:08.265Z,20.13
2022-12-28T05:29:39.850Z,17.23
2022-12-28T05:30:11.711Z,20.65
2022-12-28T05:30:43.247Z,18.00
2022-12-28T05:31:17.878Z,19.67
2022-12-28T05:31:49.468Z,16.70
2022-12-28T05:32:21.087Z,15.95
2022-12-28T05:32:52.687Z,16.90
2022-12-28T05:33:24.271Z,18.50
2022-12-28T05:33:56.135Z,18.77
2022-12-28T05:34:27.683Z,17.70
2022-12-28T05:34:59.260Z,19.77
2022-12-28T05:35:30.842Z,17.95
2022-12-28T05:36:04.598Z,16.35
2022-12-28T05:36:39.756Z,17.70
2022-12-28T05:37:14.411Z,16.52
2022-12-28T05:37:48.547Z,18.50
2022-12-28T05:38:20.139Z,18.05
2022-12-28T05:38:52.779Z,16.67
2022-12-28T05:39:24.629Z,20.05
2022-12-28T05:39:56.644Z,19.48
2022-12-28T05:40:28.310Z,21.77
2022-12-28T05:41:11.299Z,19.48
2022-12-28T05:41:42.895Z,18.65
2022-12-28T05:42:14.442Z,19.58
2022-12-28T05:42:51.200Z,19.95
2022-12-28T05:43:23.340Z,21.00
2022-12-28T05:43:56.244Z,21.42
2022-12-28T05:44:28.082Z,17.90
2022-12-28T05:44:59.660Z,18.27
2022-12-28T05:45:31.256Z,19.20
2022-12-28T05:46:11.462Z,21.13
2022-12-28T05:46:43.123Z,19.20
2022-12-28T05:47:14.673Z,22.05
2022-12-28T05:47:46.241Z,18.42
2022-12-28T05:48:17.796Z,18.58
2022-12-28T05:48:49.452Z,22.02
2022-12-28T05:49:21.298Z,22.27
2022-12-28T05:49:52.888Z,20.98
2022-12-28T05:50:24.521Z,20.15
2022-12-28T05:50:59.559Z,19.45
2022-12-28T05:51:32.574Z,26.38
2022-12-28T05:52:04.279Z,19.48
2022-12-28T05:52:38.642Z,21.92
2022-12-28T05:53:10.487Z,21.02
2022-12-28T05:53:43.152Z,23.73
2022-12-28T05:54:14.775Z,19.90
2022-12-28T05:54:46.330Z,20.27
2022-12-28T05:55:17.992Z,23.52
2022-12-28T05:55:49.565Z,22.40
2022-12-28T05:56:29.450Z,21.90
2022-12-28T05:57:01.001Z,25.55
2022-12-28T05:57:32.659Z,26.30
2022-12-28T05:58:05.646Z,27.25
2022-12-28T05:58:37.308Z,27.98
2022-12-28T05:59:09.290Z,27.27
2022-12-28T05:59:40.957Z,31.60
2022-12-28T06:00:13.144Z,28.83
2022-12-28T06:00:44.721Z,31.88
2022-12-28T06:01:21.737Z,33.58
2022-12-28T06:01:53.507Z,30.63
2022-12-28T06:02:27.686Z,29.63
2022-12-28T06:02:59.467Z,33.60
2022-12-28T06:03:31.400Z,34.53
2022-12-28T06:04:15.192Z,35.30
2022-12-28T06:04:46.757Z,34.97
2022-12-28T06:05:18.302Z,34.22
2022-12-28T06:05:50.508Z,33.58
2022-12-28T06:06:22.437Z,37.72
2022-12-28T06:06:56.666Z,44.85
2022-12-28T06:07:28.256Z,47.40
2022-12-28T06:08:01.115Z,49.90
2022-12-28T06:08:32.952Z,53.97
2022-12-28T06:09:04.946Z,49.83
2022-12-28T06:09:36.514Z,54.20
2022-12-28T06:10:08.598Z,50.50
2022-12-28T06:10:40.155Z,51.55
2022-12-28T06:11:14.541Z,54.72
2022-12-28T06:11:46.285Z,49.95
2022-12-28T06:12:18.024Z,46.22
2022-12-28T06:12:49.638Z,43.80
2022-12-28T06:13:21.198Z,42.53
2022-12-28T06:13:53.240Z,44.95
2022-12-28T06:14:24.784Z,53.00
2022-12-28T06:14:56.389Z,33.15
2022-12-28T06:15:27.959Z,22.17
2022-12-28T06:16:04.588Z,19.95
2022-12-28T06:16:39.344Z,20.52
2022-12-28T06:17:11.012Z,19.40
2022-12-28T06:17:42.602Z,18.00
2022-12-28T06:18:14.187Z,17.38
2022-12-28T06:18:46.351Z,16.85
2022-12-28T06:19:18.354Z,17.63
2022-12-28T06:19:49.918Z,18.77
2022-12-28T06:20:21.454Z,17.75
2022-12-28T06:20:56.983Z,16.45
2022-12-28T06:21:31.786Z,19.55
2022-12-28T06:22:03.395Z,14.70
2022-12-28T06:22:36.164Z,20.58
2022-12-28T06:23:07.701Z,19.40
2022-12-28T06:23:39.365Z,17.75
2022-12-28T06:24:11.490Z,16.85
2022-12-28T06:24:43.113Z,18.15
2022-12-28T06:25:14.752Z,18.80
2022-12-28T06:25:46.365Z,17.40
2022-12-28T06:26:20.388Z,17.20
2022-12-28T06:26:51.998Z,19.80
2022-12-28T06:27:23.579Z,20.33
2022-12-28T06:27:55.135Z,19.85
2022-12-28T06:28:27.480Z,21.73
2022-12-28T06:28:59.996Z,20.45
2022-12-28T06:29:31.544Z,21.20
2022-12-28T06:30:03.498Z,22.23
2022-12-28T06:30:35.126Z,22.55
2022-12-28T06:31:23.828Z,24.45
2022-12-28T06:31:56.615Z,29.65
2022-12-28T06:32:28.264Z,26.67
2022-12-28T06:32:59.830Z,27.13
2022-12-28T06:33:31.588Z,25.73
2022-12-28T06:34:04.884Z,29.70
2022-12-28T06:34:36.709Z,28.08
2022-12-28T06:35:08.772Z,30.55
2022-12-28T06:35:41.281Z,33.78
2022-12-28T06:36:19.927Z,32.97
2022-12-28T06:36:52.832Z,30.73
2022-12-28T06:37:24.373Z,30.58
2022-12-28T06:37:55.901Z,26.77
2022-12-28T06:38:29.654Z,28.23
2022-12-28T06:39:03.526Z,29.85
2022-12-28T06:39:35.072Z,32.05
2022-12-28T06:40:07.227Z,27.10
2022-12-28T06:41:11.736Z,30.80
2022-12-28T06:41:30.755Z,32.58
2022-12-28T06:42:02.318Z,29.08
2022-12-28T06:42:33.914Z,31.00
2022-12-28T06:43:05.674Z,36.95
2022-12-28T06:43:39.021Z,33.33
2022-12-28T06:44:13.559Z,32.03
2022-12-28T06:44:45.139Z,30.83
2022-12-28T06:45:16.823Z,32.20
2022-12-28T06:45:57.758Z,36.90
2022-12-28T06:46:30.508Z,38.22
2022-12-28T06:47:02.110Z,35.60
2022-12-28T06:47:36.183Z,29.52
2022-12-28T06:48:07.765Z,39.95
2022-12-28T06:48:40.606Z,31.52
2022-12-28T06:49:12.267Z,39.75
2022-12-28T06:49:43.911Z,53.67
2022-12-28T06:50:15.605Z,59.20
2022-12-28T06:51:04.937Z,62.03
2022-12-28T06:51:40.674Z,84.35
2022-12-28T06:52:12.449Z,59.45
2022-12-28T06:52:44.018Z,56.10
2022-12-28T06:53:15.560Z,57.08
2022-12-28T06:53:48.120Z,51.05
2022-12-28T06:54:19.729Z,45.35
2022-12-28T06:54:51.339Z,42.25
2022-12-28T06:55:22.975Z,31.25
2022-12-28T06:56:03.539Z,34.70
2022-12-28T06:56:36.405Z,33.83
2022-12-28T06:57:07.993Z,36.78
2022-12-28T06:57:39.600Z,32.90
2022-12-28T06:58:11.132Z,40.30
2022-12-28T06:58:43.754Z,52.95
2022-12-28T06:59:15.374Z,41.88
2022-12-28T06:59:46.979Z,45.67
2022-12-28T07:00:18.689Z,45.33
2022-12-28T07:00:50.455Z,40.70
2022-12-28T07:01:25.212Z,41.08
2022-12-28T07:01:56.995Z,45.13
2022-12-28T07:02:28.769Z,42.05
2022-12-28T07:03:00.487Z,44.58
2022-12-28T07:03:32.064Z,39.13
2022-12-28T07:04:05.831Z,44.33
2022-12-28T07:04:37.387Z,40.95
2022-12-28T07:05:09.231Z,42.13
2022-12-28T07:05:40.785Z,46.47
2022-12-28T07:06:13.713Z,46.05
2022-12-28T07:06:45.475Z,44.20
2022-12-28T07:07:17.049Z,42.95
2022-12-28T07:07:48.659Z,43.28
2022-12-28T07:08:20.253Z,45.78
2022-12-28T07:08:52.513Z,40.13
2022-12-28T07:09:24.080Z,41.35
2022-12-28T07:09:55.664Z,42.58
2022-12-28T07:10:27.246Z,39.45
2022-12-28T07:11:13.640Z,41.92
2022-12-28T07:11:45.554Z,42.33
2022-12-28T07:12:17.148Z,40.58
2022-12-28T07:12:48.695Z,40.33
2022-12-28T07:13:26.201Z,45.08
2022-12-28T07:13:59.806Z,51.00
2022-12-28T07:14:32.456Z,51.38
2022-12-28T07:15:04.337Z,51.35
2022-12-28T07:15:37.035Z,54.38
2022-12-28T07:16:12.709Z,54.28
2022-12-28T07:16:44.812Z,53.08
2022-12-28T07:17:16.425Z,53.20
2022-12-28T07:17:47.982Z,51.92
2022-12-28T07:18:19.559Z,52.00
2022-12-28T07:18:51.247Z,52.72
2022-12-28T07:19:22.813Z,52.13
2022-12-28T07:19:55.626Z,46.15
2022-12-28T07:20:27.249Z,49.53
2022-12-28T07:21:07.691Z,43.20
2022-12-28T07:21:40.168Z,46.40
2022-12-28T07:22:11.757Z,46.88
2022-12-28T07:22:43.407Z,49.70
2022-12-28T07:23:14.978Z,46.75
2022-12-28T07:23:46.877Z,56.10
2022-12-28T07:24:18.496Z,52.50
2022-12-28T07:24:50.081Z,57.03
2022-12-28T07:25:21.700Z,51.65
2022-12-28T07:25:53.257Z,54.60
2022-12-28T07:26:28.723Z,52.50
2022-12-28T07:27:00.318Z,48.38
2022-12-28T07:27:31.933Z,50.28
2022-12-28T07:28:03.624Z,48.65
2022-12-28T07:28:41.090Z,45.25
2022-12-28T07:29:12.757Z,47.55
2022-12-28T07:29:44.349Z,49.55
2022-12-28T07:30:15.980Z,45.38
2022-12-28T07:30:47.573Z,47.95
2022-12-28T07:31:22.227Z,47.55
2022-12-28T07:31:53.881Z,47.58
2022-12-28T07:32:25.468Z,47.00
2022-12-28T07:32:57.112Z,48.10
2022-12-28T07:33:28.701Z,47.40
2022-12-28T07:34:01.267Z,45.83
2022-12-28T07:34:33.296Z,44.05